Time;durP1;ratioP1;P1;durP2;ratioP2;P2;SDS_P1;SDS_P2;PMS_P1;PMS_P2;Temp;Humidity;BMP_temperature;BMP_pressure;BME280_temperature;BME280_humidity;BME280_pressure;Samples;Min_cycle;Max_cycle;Signal;HPM_P1;HPM_P2
2023/05/23 00:00:19;;;;;;;;;;;18.10;99.90;;;;;;5022140;28;19932;-77
2023/05/23 00:02:45;;;;;;;;;;;18.10;99.90;;;;;;5021864;28;19933;-77
2023/05/23 00:05:16;;;;;;;;;;;18.10;99.90;;;;;;5023732;28;20391;-77
2023/05/23 00:07:43;;;;;;;;;;;18.10;99.90;;;;;;5036357;28;20036;-77
2023/05/23 00:10:13;;;;;;;;;;;18.00;99.90;;;;;;5016381;28;20300;-77
2023/05/23 00:12:41;;;;;;;;;;;18.00;99.90;;;;;;5019290;28;20048;-77
2023/05/23 00:15:08;;;;;;;;;;;18.00;99.90;;;;;;5017745;28;20390;-77
2023/05/23 00:17:41;;;;;;;;;;;18.00;99.90;;;;;;5016467;28;19929;-77
2023/05/23 00:20:09;;;;;;;;;;;18.00;99.90;;;;;;5018844;28;20388;-77
2023/05/23 00:22:41;;;;;;;;;;;17.90;99.90;;;;;;5018994;28;19936;-77
2023/05/23 00:25:08;;;;;;;;;;;17.90;99.90;;;;;;5010152;28;19933;-77
2023/05/23 00:27:35;;;;;;;;;;;17.90;99.90;;;;;;5012260;28;20143;-78
2023/05/23 00:30:05;;;;;;;;;;;17.90;99.90;;;;;;5016049;28;19929;-77
2023/05/23 00:32:32;;;;;;;;;;;17.90;99.90;;;;;;5019309;28;19933;-77
2023/05/23 00:34:59;;;;;;;;;;;17.90;99.90;;;;;;5032399;28;19964;-78
2023/05/23 00:37:27;;;;;;;;;;;17.90;99.90;;;;;;5019097;28;19933;-77
2023/05/23 00:39:55;;;;;;;;;;;17.90;99.90;;;;;;5019884;28;20039;-76
2023/05/23 00:42:22;;;;;;;;;;;17.80;99.90;;;;;;5010197;28;19925;-78
2023/05/23 00:44:49;;;;;;;;;;;17.80;99.90;;;;;;5031299;28;19964;-78
2023/05/23 00:47:16;;;;;;;;;;;17.80;99.90;;;;;;5017058;28;19983;-77
2023/05/23 00:49:43;;;;;;;;;;;17.80;99.90;;;;;;5033740;28;19948;-77
2023/05/23 00:52:10;;;;;;;;;;;17.80;99.90;;;;;;5020016;28;19935;-77
2023/05/23 00:54:38;;;;;;;;;;;17.70;99.90;;;;;;5016181;28;19929;-76
2023/05/23 00:57:07;;;;;;;;;;;17.80;99.90;;;;;;5019146;28;19991;-77
2023/05/23 00:59:36;;;;;;;;;;;17.70;99.90;;;;;;5034252;28;19939;-76
2023/05/23 01:02:03;;;;;;;;;;;17.70;99.90;;;;;;5029686;28;20327;-76
2023/05/23 01:04:32;;;;;;;;;;;17.70;99.90;;;;;;5029653;28;20019;-77
2023/05/23 01:07:00;;;;;;;;;;;17.70;99.90;;;;;;5024851;28;19929;-77
2023/05/23 01:09:28;;;;;;;;;;;17.70;99.90;;;;;;5037369;28;19960;-77
2023/05/23 01:12:00;;;;;;;;;;;17.60;99.90;;;;;;5036895;28;20660;-77
2023/05/23 01:14:32;;;;;;;;;;;17.60;99.90;;;;;;5018978;28;19936;-78
2023/05/23 01:17:03;;;;;;;;;;;17.60;99.90;;;;;;5034733;28;19965;-77
2023/05/23 01:19:48;;;;;;;;;;;17.60;99.90;;;;;;5019560;28;19934;-77
2023/05/23 01:22:21;;;;;;;;;;;17.60;99.90;;;;;;5021743;28;20024;-77
2023/05/23 01:24:54;;;;;;;;;;;17.60;99.90;;;;;;5018027;28;19932;-77
2023/05/23 01:27:24;;;;;;;;;;;17.50;99.90;;;;;;5017760;28;20473;-77
2023/05/23 01:29:54;;;;;;;;;;;17.50;99.90;;;;;;5036489;28;19929;-77
2023/05/23 01:32:22;;;;;;;;;;;17.50;99.90;;;;;;5017551;28;19929;-77
2023/05/23 01:34:52;;;;;;;;;;;17.50;99.90;;;;;;5021641;28;20024;-76
2023/05/23 01:37:19;;;;;;;;;;;17.50;99.90;;;;;;5023998;28;19952;-77
2023/05/23 01:39:46;;;;;;;;;;;17.50;99.90;;;;;;5039722;28;19931;-77
2023/05/23 01:42:15;;;;;;;;;;;17.40;99.90;;;;;;5023271;28;19932;-77
2023/05/23 01:44:42;;;;;;;;;;;17.50;99.90;;;;;;5019568;28;19925;-77
2023/05/23 01:47:11;;;;;;;;;;;17.40;99.90;;;;;;5024531;28;19999;-77
2023/05/23 01:49:40;;;;;;;;;;;17.40;99.90;;;;;;5036416;28;19925;-77
2023/05/23 01:52:09;;;;;;;;;;;17.40;99.90;;;;;;5021473;28;20391;-77
2023/05/23 01:54:37;;;;;;;;;;;17.40;99.90;;;;;;5038945;28;20307;-77
2023/05/23 01:57:04;;;;;;;;;;;17.40;99.90;;;;;;5022599;28;19933;-78
2023/05/23 01:59:32;;;;;;;;;;;17.40;99.90;;;;;;5022847;28;19955;-77
2023/05/23 02:02:01;;;;;;;;;;;17.30;99.90;;;;;;5018612;28;19933;-77
2023/05/23 02:04:30;;;;;;;;;;;17.40;99.90;;;;;;5022483;28;19937;-77
2023/05/23 02:06:58;;;;;;;;;;;17.30;99.90;;;;;;5022119;28;20487;-78
2023/05/23 02:09:25;;;;;;;;;;;17.30;99.90;;;;;;5016391;28;20457;-77
2023/05/23 02:11:52;;;;;;;;;;;17.30;99.90;;;;;;5018863;28;20442;-77
2023/05/23 02:14:19;;;;;;;;;;;17.30;99.90;;;;;;5022738;28;19933;-77
2023/05/23 02:16:46;;;;;;;;;;;17.30;99.90;;;;;;5036099;28;19968;-77
2023/05/23 02:19:13;;;;;;;;;;;17.30;99.90;;;;;;5019974;28;20302;-77
2023/05/23 02:21:41;;;;;;;;;;;17.30;99.90;;;;;;5017998;28;20032;-76
2023/05/23 02:24:08;;;;;;;;;;;17.20;99.90;;;;;;5021469;28;20498;-77
2023/05/23 02:26:35;;;;;;;;;;;17.20;99.90;;;;;;5017828;28;19929;-77
2023/05/23 02:29:01;;;;;;;;;;;17.20;99.90;;;;;;5021794;28;19925;-77
2023/05/23 02:31:29;;;;;;;;;;;17.20;99.90;;;;;;5035149;28;19940;-77
2023/05/23 02:33:56;;;;;;;;;;;17.20;99.90;;;;;;5015056;28;20438;-77
2023/05/23 02:36:23;;;;;;;;;;;17.20;99.90;;;;;;5019341;28;19925;-75
2023/05/23 02:38:51;;;;;;;;;;;17.20;99.90;;;;;;5019153;28;19933;-77
2023/05/23 02:41:18;;;;;;;;;;;17.20;99.90;;;;;;5019475;28;20443;-77
2023/05/23 02:43:45;;;;;;;;;;;17.20;99.90;;;;;;5011449;28;19965;-77
2023/05/23 02:46:13;;;;;;;;;;;17.20;99.90;;;;;;5021620;28;20272;-76
2023/05/23 02:48:40;;;;;;;;;;;17.10;99.90;;;;;;5018225;28;19952;-78
2023/05/23 02:51:07;;;;;;;;;;;17.10;99.90;;;;;;5033178;28;20028;-77
2023/05/23 02:53:33;;;;;;;;;;;17.10;99.90;;;;;;5017409;28;19986;-77
2023/05/23 02:56:02;;;;;;;;;;;17.10;99.90;;;;;;5016717;28;20012;-77
2023/05/23 02:58:30;;;;;;;;;;;17.10;99.90;;;;;;5016542;28;19936;-77
2023/05/23 03:00:57;;;;;;;;;;;17.10;99.90;;;;;;5019880;28;20412;-76
2023/05/23 03:03:24;;;;;;;;;;;17.10;99.90;;;;;;5019914;28;20384;-77
2023/05/23 03:05:55;;;;;;;;;;;17.10;99.90;;;;;;5023578;28;20412;-77
2023/05/23 03:08:22;;;;;;;;;;;17.10;99.90;;;;;;5018845;28;20380;-77
2023/05/23 03:10:50;;;;;;;;;;;17.10;99.90;;;;;;5034673;28;19933;-76
2023/05/23 03:13:19;;;;;;;;;;;17.10;99.90;;;;;;5021446;28;20135;-77
2023/05/23 03:15:46;;;;;;;;;;;17.10;99.90;;;;;;5018184;28;20405;-77
2023/05/23 03:18:13;;;;;;;;;;;17.10;99.90;;;;;;5034415;28;19933;-77
2023/05/23 03:20:39;;;;;;;;;;;16.50;99.90;;;;;;5035729;28;20305;-77
2023/05/23 03:23:06;;;;;;;;;;;17.00;99.90;;;;;;5016186;28;20393;-78
2023/05/23 03:25:33;;;;;;;;;;;17.00;99.90;;;;;;5033637;28;20013;-77
2023/05/23 03:28:02;;;;;;;;;;;17.00;99.90;;;;;;5017933;28;19933;-78
2023/05/23 03:30:30;;;;;;;;;;;17.00;99.90;;;;;;5017150;28;19999;-77
2023/05/23 03:32:57;;;;;;;;;;;17.00;99.90;;;;;;5013802;28;19925;-77
2023/05/23 03:35:24;;;;;;;;;;;17.00;99.90;;;;;;5019949;28;20559;-77
2023/05/23 03:37:51;;;;;;;;;;;16.90;99.90;;;;;;5022190;28;19933;-77
2023/05/23 03:40:17;;;;;;;;;;;16.90;99.90;;;;;;5031866;28;19932;-77
2023/05/23 03:42:48;;;;;;;;;;;16.90;99.90;;;;;;5037964;28;19933;-76
2023/05/23 03:45:15;;;;;;;;;;;16.90;99.90;;;;;;5033912;28;19972;-76
2023/05/23 03:47:43;;;;;;;;;;;16.90;99.90;;;;;;5020564;28;19930;-76
2023/05/23 03:50:10;;;;;;;;;;;16.90;99.90;;;;;;5017145;28;20016;-77
2023/05/23 03:52:38;;;;;;;;;;;16.90;99.90;;;;;;5018277;28;20399;-77
2023/05/23 03:55:05;;;;;;;;;;;16.90;99.90;;;;;;5026569;28;19983;-76
2023/05/23 03:57:32;;;;;;;;;;;16.90;99.90;;;;;;5013676;28;20340;-77
2023/05/23 03:59:59;;;;;;;;;;;16.90;99.90;;;;;;5013814;28;20299;-76
2023/05/23 04:02:26;;;;;;;;;;;16.80;99.90;;;;;;5003562;28;19929;-76
2023/05/23 04:04:55;;;;;;;;;;;16.80;99.90;;;;;;5019909;28;19925;-77
2023/05/23 04:07:25;;;;;;;;;;;;;;;;;;5035244;28;19925;-76
2023/05/23 04:09:52;;;;;;;;;;;16.80;99.90;;;;;;5035789;28;19925;-77
2023/05/23 04:12:21;;;;;;;;;;;16.80;99.90;;;;;;5026680;28;20110;-76
2023/05/23 04:14:49;;;;;;;;;;;16.80;99.90;;;;;;5036134;28;19925;-77
2023/05/23 04:17:16;;;;;;;;;;;16.80;99.90;;;;;;5032992;28;19925;-76
2023/05/23 04:19:43;;;;;;;;;;;16.70;99.90;;;;;;5013045;28;19944;-76
2023/05/23 04:22:11;;;;;;;;;;;16.70;99.90;;;;;;5010835;28;19925;-76
2023/05/23 04:24:38;;;;;;;;;;;16.70;99.90;;;;;;5003625;28;19929;-77
2023/05/23 04:27:06;;;;;;;;;;;16.70;99.90;;;;;;5019907;28;20562;-78
2023/05/23 04:29:34;;;;;;;;;;;16.70;99.90;;;;;;5034018;28;19925;-77
2023/05/23 04:32:01;;;;;;;;;;;16.70;99.90;;;;;;5033451;28;19937;-76
2023/05/23 04:34:29;;;;;;;;;;;16.70;99.90;;;;;;5016712;28;19933;-76
2023/05/23 04:36:57;;;;;;;;;;;16.70;99.90;;;;;;5017910;28;20012;-77
2023/05/23 04:39:26;;;;;;;;;;;16.70;99.90;;;;;;5018270;28;20909;-79
2023/05/23 04:42:16;;;;;;;;;;;16.60;99.90;;;;;;5018614;28;20717;-76
2023/05/23 04:44:57;;;;;;;;;;;16.60;99.90;;;;;;5036906;28;19929;-77
2023/05/23 04:47:43;;;;;;;;;;;16.70;99.90;;;;;;5017833;28;19929;-77
2023/05/23 04:50:17;;;;;;;;;;;16.60;99.90;;;;;;5017084;28;20447;-76
2023/05/23 04:52:45;;;;;;;;;;;16.60;99.90;;;;;;5018428;28;20011;-75
2023/05/23 04:55:14;;;;;;;;;;;16.60;99.90;;;;;;5017628;28;21439;-78
2023/05/23 04:57:41;;;;;;;;;;;16.60;99.90;;;;;;5019354;28;19929;-76
2023/05/23 05:00:09;;;;;;;;;;;16.60;99.90;;;;;;5017967;28;19937;-77
2023/05/23 05:02:37;;;;;;;;;;;16.60;99.90;;;;;;5022317;28;19933;-75
2023/05/23 05:05:04;;;;;;;;;;;16.60;99.90;;;;;;5023260;28;20011;-75
2023/05/23 05:07:31;;;;;;;;;;;16.60;99.90;;;;;;5036525;28;19929;-77
2023/05/23 05:09:58;;;;;;;;;;;16.60;99.90;;;;;;5025209;28;19924;-76
2023/05/23 05:12:26;;;;;;;;;;;16.60;99.90;;;;;;5023202;28;20387;-76
2023/05/23 05:14:55;;;;;;;;;;;16.60;99.90;;;;;;5023789;28;20036;-76
2023/05/23 05:17:25;;;;;;;;;;;16.60;99.90;;;;;;5016940;28;19932;-78
2023/05/23 05:20:07;;;;;;;;;;;16.50;99.90;;;;;;5039768;28;19933;-78
2023/05/23 05:22:36;;;;;;;;;;;16.50;99.90;;;;;;5021973;28;20019;-77
2023/05/23 05:25:05;;;;;;;;;;;16.50;99.90;;;;;;5019984;28;20549;-78
2023/05/23 05:27:33;;;;;;;;;;;16.60;99.90;;;;;;5022313;28;19925;-78
2023/05/23 05:30:03;;;;;;;;;;;16.60;99.90;;;;;;5026780;28;19929;-78
2023/05/23 05:32:33;;;;;;;;;;;16.60;99.90;;;;;;5025449;28;20391;-77
2023/05/23 05:35:01;;;;;;;;;;;16.60;99.90;;;;;;5035059;28;19951;-78
2023/05/23 05:37:29;;;;;;;;;;;16.60;99.90;;;;;;5023616;28;19925;-78
2023/05/23 05:39:56;;;;;;;;;;;16.60;99.90;;;;;;5022455;28;20012;-78
2023/05/23 05:42:23;;;;;;;;;;;16.60;99.90;;;;;;5025058;28;20428;-78
2023/05/23 05:44:51;;;;;;;;;;;16.60;99.90;;;;;;5022324;28;19926;-78
2023/05/23 05:47:18;;;;;;;;;;;16.60;99.90;;;;;;5029434;28;20408;-78
2023/05/23 05:49:45;;;;;;;;;;;16.60;99.90;;;;;;5025983;28;20021;-78
2023/05/23 05:52:11;;;;;;;;;;;16.60;99.90;;;;;;5040699;28;20016;-78
2023/05/23 05:54:39;;;;;;;;;;;16.60;99.90;;;;;;5027829;28;19929;-78
2023/05/23 05:57:06;;;;;;;;;;;16.60;99.90;;;;;;5030463;28;20504;-76
2023/05/23 05:59:33;;;;;;;;;;;16.60;99.90;;;;;;5030888;28;19952;-78
2023/05/23 06:02:02;;;;;;;;;;;16.60;99.90;;;;;;5044309;28;19925;-78
2023/05/23 06:04:29;;;;;;;;;;;16.60;99.90;;;;;;5039702;28;20013;-78
2023/05/23 06:06:57;;;;;;;;;;;16.60;99.90;;;;;;5025684;28;20016;-78
2023/05/23 06:09:24;;;;;;;;;;;16.60;99.90;;;;;;5027540;28;20489;-78
2023/05/23 06:11:51;;;;;;;;;;;16.60;99.90;;;;;;5026496;28;20303;-79
2023/05/23 06:14:18;;;;;;;;;;;16.60;99.90;;;;;;5023476;28;20579;-78
2023/05/23 06:16:47;;;;;;;;;;;16.60;99.90;;;;;;5026917;28;19932;-78
2023/05/23 06:19:15;;;;;;;;;;;16.60;99.90;;;;;;5027013;28;19979;-78
2023/05/23 06:21:42;;;;;;;;;;;16.60;99.90;;;;;;5026689;28;20035;-78
2023/05/23 06:24:10;;;;;;;;;;;16.60;99.90;;;;;;5029552;28;19925;-76
2023/05/23 06:26:37;;;;;;;;;;;16.60;99.90;;;;;;5024481;28;19925;-78
2023/05/23 06:29:04;;;;;;;;;;;16.60;99.90;;;;;;5042194;28;19995;-78
2023/05/23 06:31:31;;;;;;;;;;;16.60;99.90;;;;;;5029159;28;19951;-78
2023/05/23 06:33:58;;;;;;;;;;;16.60;99.90;;;;;;5029852;28;19932;-78
2023/05/23 06:36:26;;;;;;;;;;;16.60;99.90;;;;;;5027425;28;19925;-78
2023/05/23 06:38:55;;;;;;;;;;;16.60;99.90;;;;;;5025541;28;19929;-78
2023/05/23 06:41:22;;;;;;;;;;;16.60;99.90;;;;;;5032935;28;20044;-77
2023/05/23 06:43:52;;;;;;;;;;;16.60;99.90;;;;;;5044562;28;19979;-78
2023/05/23 06:46:23;;;;;;;;;;;16.60;99.90;;;;;;5027019;28;20439;-79
2023/05/23 06:48:51;;;;;;;;;;;16.60;99.90;;;;;;5027029;28;19925;-78
2023/05/23 06:51:18;;;;;;;;;;;16.60;99.90;;;;;;5027707;28;19940;-78
2023/05/23 06:53:46;;;;;;;;;;;16.60;99.90;;;;;;5024567;28;19925;-77
2023/05/23 06:56:13;;;;;;;;;;;16.60;99.90;;;;;;5026731;28;19979;-78
2023/05/23 06:58:51;;;;;;;;;;;16.60;99.90;;;;;;5028928;28;20015;-78
2023/05/23 07:01:18;;;;;;;;;;;16.60;99.90;;;;;;5024732;28;19925;-78
2023/05/23 07:03:48;;;;;;;;;;;16.60;99.90;;;;;;5026249;28;20350;-78
2023/05/23 07:06:15;;;;;;;;;;;16.60;99.90;;;;;;5045240;28;19953;-79
2023/05/23 07:08:42;;;;;;;;;;;16.60;99.90;;;;;;5044716;28;19932;-78
2023/05/23 07:11:11;;;;;;;;;;;16.60;99.90;;;;;;5024362;28;19925;-78
2023/05/23 07:13:41;;;;;;;;;;;16.60;99.90;;;;;;5030219;28;19925;-78
2023/05/23 07:16:11;;;;;;;;;;;16.60;99.90;;;;;;5028521;28;19928;-78
2023/05/23 07:18:47;;;;;;;;;;;16.60;99.90;;;;;;5025759;28;19948;-78
2023/05/23 07:21:14;;;;;;;;;;;16.60;99.90;;;;;;5025231;28;20323;-78
2023/05/23 07:23:41;;;;;;;;;;;16.60;99.90;;;;;;5028573;28;20387;-78
2023/05/23 07:26:08;;;;;;;;;;;16.60;99.90;;;;;;5038573;28;19933;-78
2023/05/23 07:28:49;;;;;;;;;;;16.60;99.90;;;;;;5028286;28;19925;-78
2023/05/23 07:31:16;;;;;;;;;;;16.60;99.90;;;;;;5045016;28;19968;-78
2023/05/23 07:33:47;;;;;;;;;;;16.60;99.90;;;;;;5026334;28;20589;-78
2023/05/23 07:36:21;;;;;;;;;;;16.60;99.90;;;;;;5022444;28;19969;-77
2023/05/23 07:38:48;;;;;;;;;;;16.60;99.90;;;;;;5024410;28;19960;-78
2023/05/23 07:41:15;;;;;;;;;;;16.60;99.90;;;;;;5040013;28;20015;-78
2023/05/23 07:43:41;;;;;;;;;;;16.60;99.90;;;;;;5024617;28;19941;-78
2023/05/23 07:46:10;;;;;;;;;;;16.60;99.90;;;;;;5042708;28;19932;-78
2023/05/23 07:48:38;;;;;;;;;;;16.60;99.90;;;;;;5028856;28;20417;-77
2023/05/23 07:51:05;;;;;;;;;;;16.60;99.90;;;;;;5026408;28;19925;-78
2023/05/23 07:53:32;;;;;;;;;;;16.60;99.90;;;;;;5027477;28;19925;-79
2023/05/23 07:55:58;;;;;;;;;;;16.60;99.90;;;;;;5027450;28;19940;-78
2023/05/23 07:58:30;;;;;;;;;;;16.60;99.90;;;;;;5025959;28;20008;-78
2023/05/23 08:00:58;;;;;;;;;;;16.70;99.90;;;;;;5027301;28;19960;-78
2023/05/23 08:03:46;;;;;;;;;;;16.70;99.90;;;;;;5025848;28;19971;-78
2023/05/23 08:06:20;;;;;;;;;;;16.70;99.90;;;;;;5019904;28;20023;-78
2023/05/23 08:08:47;;;;;;;;;;;16.70;99.90;;;;;;5041155;28;20364;-77
2023/05/23 08:11:14;;;;;;;;;;;16.70;99.90;;;;;;5027391;28;19933;-78
2023/05/23 08:13:45;;;;;;;;;;;16.70;99.90;;;;;;5024096;28;19933;-78
2023/05/23 08:16:34;;;;;;;;;;;16.70;99.90;;;;;;5020897;28;20455;-78
2023/05/23 08:19:02;;;;;;;;;;;16.70;99.90;;;;;;5028176;28;19933;-78
2023/05/23 08:21:29;;;;;;;;;;;16.70;99.90;;;;;;5027925;28;20372;-77
2023/05/23 08:23:55;;;;;;;;;;;16.70;99.90;;;;;;5017651;28;20414;-78
2023/05/23 08:26:22;;;;;;;;;;;16.70;99.90;;;;;;5044292;28;20020;-78
2023/05/23 08:28:50;;;;;;;;;;;16.70;99.90;;;;;;5027402;28;19925;-78
2023/05/23 08:31:17;;;;;;;;;;;16.70;99.90;;;;;;5024279;28;20016;-78
2023/05/23 08:33:44;;;;;;;;;;;16.70;99.90;;;;;;5019097;28;19933;-78
2023/05/23 08:36:13;;;;;;;;;;;16.70;99.90;;;;;;5020468;28;20383;-78
2023/05/23 08:38:40;;;;;;;;;;;16.70;99.90;;;;;;5027272;28;19961;-78
2023/05/23 08:41:18;;;;;;;;;;;16.70;99.90;;;;;;5041495;28;19925;-77
2023/05/23 08:43:46;;;;;;;;;;;16.70;99.90;;;;;;5040039;28;19933;-77
2023/05/23 08:46:17;;;;;;;;;;;16.70;99.90;;;;;;5027507;28;19925;-78
2023/05/23 08:48:48;;;;;;;;;;;16.70;99.90;;;;;;5025725;28;20307;-78
2023/05/23 08:51:17;;;;;;;;;;;16.70;99.90;;;;;;5041088;28;19961;-78
2023/05/23 08:53:46;;;;;;;;;;;16.70;99.90;;;;;;5026249;28;20315;-78
2023/05/23 08:56:13;;;;;;;;;;;16.70;99.90;;;;;;5026716;28;20461;-78
2023/05/23 08:58:46;;;;;;;;;;;16.70;99.90;;;;;;5024661;28;19935;-78
2023/05/23 09:01:13;;;;;;;;;;;16.70;99.90;;;;;;5040598;28;20020;-78
2023/05/23 09:03:42;;;;;;;;;;;16.70;99.90;;;;;;5026947;28;19929;-78
2023/05/23 09:06:21;;;;;;;;;;;16.70;99.90;;;;;;5021221;28;19929;-79
2023/05/23 09:08:49;;;;;;;;;;;16.70;99.90;;;;;;5026368;28;19925;-78
2023/05/23 09:11:20;;;;;;;;;;;16.70;99.90;;;;;;5043008;28;19932;-78
2023/05/23 09:13:48;;;;;;;;;;;16.70;99.90;;;;;;5038934;28;20388;-78
2023/05/23 09:16:17;;;;;;;;;;;16.70;99.90;;;;;;5023370;28;19933;-78
2023/05/23 09:18:56;;;;;;;;;;;16.70;99.90;;;;;;5024667;28;20394;-78
2023/05/23 09:21:25;;;;;;;;;;;16.70;99.90;;;;;;5029931;28;20412;-78
2023/05/23 09:24:15;;;;;;;;;;;16.70;99.90;;;;;;5020942;28;19944;-77
2023/05/23 09:26:46;;;;;;;;;;;16.80;99.90;;;;;;5041354;28;19929;-78
2023/05/23 09:29:13;;;;;;;;;;;16.80;99.90;;;;;;5028851;28;19932;-78
2023/05/23 09:31:43;;;;;;;;;;;16.80;99.90;;;;;;5042527;28;19976;-78
2023/05/23 09:34:10;;;;;;;;;;;16.80;99.90;;;;;;5030887;28;19929;-77
2023/05/23 09:36:42;;;;;;;;;;;16.80;99.90;;;;;;5029573;28;19929;-77
2023/05/23 09:39:11;;;;;;;;;;;16.80;99.90;;;;;;5030543;28;19925;-78
2023/05/23 09:41:38;;;;;;;;;;;16.80;99.90;;;;;;5030503;28;19952;-78
2023/05/23 09:44:07;;;;;;;;;;;16.80;99.90;;;;;;5030665;28;19926;-78
2023/05/23 09:46:35;;;;;;;;;;;16.80;99.90;;;;;;5027739;28;19925;-78
2023/05/23 09:49:02;;;;;;;;;;;16.80;99.90;;;;;;5028055;28;19925;-77
2023/05/23 09:51:30;;;;;;;;;;;16.90;99.90;;;;;;5044187;28;19929;-78
2023/05/23 09:53:58;;;;;;;;;;;16.90;99.90;;;;;;5043871;28;19951;-78
2023/05/23 09:56:25;;;;;;;;;;;16.90;99.90;;;;;;5031594;28;19929;-78
2023/05/23 09:58:54;;;;;;;;;;;16.90;99.90;;;;;;5026853;28;19931;-77
2023/05/23 10:01:23;;;;;;;;;;;17.00;99.90;;;;;;5030872;28;19972;-78
2023/05/23 10:03:53;;;;;;;;;;;17.00;99.90;;;;;;5027735;28;19937;-77
2023/05/23 10:06:23;;;;;;;;;;;17.00;99.90;;;;;;5031351;28;20378;-78
2023/05/23 10:08:55;;;;;;;;;;;17.00;99.90;;;;;;5025961;28;19929;-78
2023/05/23 10:11:36;;;;;;;;;;;17.00;99.90;;;;;;5029936;28;19947;-78
2023/05/23 10:14:06;;;;;;;;;;;17.00;99.90;;;;;;5025245;28;19925;-78
2023/05/23 10:16:38;;;;;;;;;;;17.10;99.90;;;;;;5028024;28;20367;-78
2023/05/23 10:19:07;;;;;;;;;;;17.10;99.90;;;;;;5030285;28;19981;-78
2023/05/23 10:21:35;;;;;;;;;;;17.10;99.90;;;;;;5027913;28;20399;-77
2023/05/23 10:24:03;;;;;;;;;;;17.10;99.90;;;;;;5029681;28;19967;-79
2023/05/23 10:26:30;;;;;;;;;;;17.10;99.90;;;;;;5042634;28;19979;-78
2023/05/23 10:28:57;;;;;;;;;;;17.10;99.90;;;;;;5022455;28;19925;-78
2023/05/23 10:31:26;;;;;;;;;;;17.10;99.90;;;;;;5029877;28;19933;-77
2023/05/23 10:33:56;;;;;;;;;;;17.10;99.90;;;;;;5029399;28;20303;-78
2023/05/23 10:36:27;;;;;;;;;;;17.10;99.90;;;;;;5025097;28;19925;-78
2023/05/23 10:38:57;;;;;;;;;;;17.20;99.90;;;;;;5030550;28;19925;-77
2023/05/23 10:41:27;;;;;;;;;;;17.20;99.90;;;;;;5028424;28;20387;-78
2023/05/23 10:43:57;;;;;;;;;;;17.20;99.90;;;;;;5039533;28;19951;-78
2023/05/23 10:46:23;;;;;;;;;;;17.20;99.90;;;;;;5024122;28;19925;-79
2023/05/23 10:48:56;;;;;;;;;;;17.20;99.90;;;;;;5027253;28;20059;-78
2023/05/23 10:51:23;;;;;;;;;;;17.20;99.90;;;;;;5022260;28;20003;-78
2023/05/23 10:53:53;;;;;;;;;;;17.30;99.90;;;;;;5026626;28;19925;-78
2023/05/23 10:56:22;;;;;;;;;;;17.30;99.90;;;;;;5027318;28;19933;-77
2023/05/23 10:58:52;;;;;;;;;;;17.30;99.90;;;;;;5028973;28;19932;-77
2023/05/23 11:01:19;;;;;;;;;;;17.30;99.90;;;;;;5026025;28;19925;-78
2023/05/23 11:03:50;;;;;;;;;;;17.30;99.90;;;;;;5028770;28;19967;-78
2023/05/23 11:06:31;;;;;;;;;;;17.30;99.90;;;;;;5028868;28;19925;-78
2023/05/23 11:09:02;;;;;;;;;;;17.30;99.90;;;;;;5025686;28;19948;-78
2023/05/23 11:11:44;;;;;;;;;;;17.40;99.90;;;;;;5025681;28;19983;-78
2023/05/23 11:14:12;;;;;;;;;;;17.40;99.90;;;;;;5024458;28;19933;-78
2023/05/23 11:16:41;;;;;;;;;;;17.40;99.90;;;;;;5024475;28;19931;-77
2023/05/23 11:19:26;;;;;;;;;;;17.40;99.90;;;;;;5027188;28;19939;-79
2023/05/23 11:22:04;;;;;;;;;;;17.40;99.90;;;;;;5025749;28;19952;-79
2023/05/23 11:24:48;;;;;;;;;;;17.50;99.90;;;;;;5027280;28;19976;-78
2023/05/23 11:27:18;;;;;;;;;;;17.50;99.90;;;;;;5025778;28;19932;-78
2023/05/23 11:29:46;;;;;;;;;;;17.50;99.90;;;;;;5044876;28;19933;-78
2023/05/23 11:32:13;;;;;;;;;;;17.50;99.90;;;;;;5030236;28;19972;-79
2023/05/23 11:34:40;;;;;;;;;;;17.50;99.90;;;;;;5025254;28;19971;-79
2023/05/23 11:37:10;;;;;;;;;;;17.60;99.90;;;;;;5031130;28;19925;-79
2023/05/23 11:39:37;;;;;;;;;;;17.60;99.90;;;;;;5030013;28;19929;-78
2023/05/23 11:42:04;;;;;;;;;;;17.60;99.90;;;;;;5046089;28;19925;-78
2023/05/23 11:44:31;;;;;;;;;;;17.60;99.90;;;;;;5026315;28;19929;-78
2023/05/23 11:47:02;;;;;;;;;;;17.60;99.90;;;;;;5029647;28;20395;-79
2023/05/23 11:49:29;;;;;;;;;;;17.60;99.90;;;;;;5028234;28;20442;-78
2023/05/23 11:51:56;;;;;;;;;;;17.70;99.90;;;;;;5026083;28;21668;-78
2023/05/23 11:54:25;;;;;;;;;;;17.70;99.90;;;;;;5029061;28;20012;-78
2023/05/23 11:56:52;;;;;;;;;;;17.70;99.90;;;;;;5027371;28;20518;-78
2023/05/23 11:59:19;;;;;;;;;;;17.70;99.90;;;;;;5029390;28;20396;-78
2023/05/23 12:01:45;;;;;;;;;;;17.80;99.90;;;;;;5023338;28;20024;-78
2023/05/23 12:04:12;;;;;;;;;;;17.80;99.90;;;;;;5029006;28;20391;-77
2023/05/23 12:06:40;;;;;;;;;;;17.80;99.90;;;;;;5029512;28;20323;-78
2023/05/23 12:09:07;;;;;;;;;;;17.80;99.90;;;;;;5027543;28;19925;-78
2023/05/23 12:11:36;;;;;;;;;;;17.90;99.90;;;;;;5027493;28;19929;-78
2023/05/23 12:14:05;;;;;;;;;;;17.90;99.90;;;;;;5023102;28;19932;-78
2023/05/23 12:16:32;;;;;;;;;;;17.90;99.90;;;;;;5027604;28;19924;-78
2023/05/23 12:18:59;;;;;;;;;;;17.90;99.90;;;;;;5026717;28;20032;-79
2023/05/23 12:21:26;;;;;;;;;;;18.00;99.90;;;;;;5027397;28;19933;-78
2023/05/23 12:23:53;;;;;;;;;;;18.00;99.90;;;;;;5029394;28;19960;-78
2023/05/23 12:26:21;;;;;;;;;;;18.10;99.90;;;;;;5025759;28;20012;-78
2023/05/23 12:28:49;;;;;;;;;;;18.10;99.90;;;;;;5020032;28;20028;-78
2023/05/23 12:31:16;;;;;;;;;;;18.10;99.90;;;;;;5023113;28;19925;-77
2023/05/23 12:33:44;;;;;;;;;;;18.20;99.90;;;;;;5027792;28;19976;-78
2023/05/23 12:36:12;;;;;;;;;;;18.20;99.90;;;;;;5022966;28;19957;-78
2023/05/23 12:38:39;;;;;;;;;;;18.20;99.90;;;;;;5027017;28;19929;-77
2023/05/23 12:41:10;;;;;;;;;;;18.20;99.90;;;;;;5025223;28;19936;-76
2023/05/23 12:43:40;;;;;;;;;;;18.30;99.90;;;;;;5026490;28;19933;-78
2023/05/23 12:46:08;;;;;;;;;;;18.30;99.90;;;;;;5026140;28;20023;-78
2023/05/23 12:48:36;;;;;;;;;;;18.30;99.90;;;;;;5022135;28;20011;-78
2023/05/23 12:51:04;;;;;;;;;;;18.40;99.90;;;;;;5028975;28;19931;-78
2023/05/23 12:53:32;;;;;;;;;;;18.40;99.90;;;;;;5026321;28;19932;-79
2023/05/23 12:56:00;;;;;;;;;;;18.50;99.90;;;;;;5021700;28;19926;-79
2023/05/23 12:58:27;;;;;;;;;;;18.50;99.90;;;;;;5024250;28;20288;-78
2023/05/23 13:00:54;;;;;;;;;;;18.50;99.90;;;;;;5026659;28;20007;-77
2023/05/23 13:03:22;;;;;;;;;;;18.50;99.90;;;;;;5026012;28;19930;-78
2023/05/23 13:05:49;;;;;;;;;;;18.60;99.90;;;;;;5028812;28;19925;-79
2023/05/23 13:08:17;;;;;;;;;;;18.60;99.90;;;;;;5027622;28;20431;-78
2023/05/23 13:10:44;;;;;;;;;;;18.60;99.90;;;;;;5025651;28;19925;-77
2023/05/23 13:13:12;;;;;;;;;;;18.60;99.90;;;;;;5030074;28;19925;-78
2023/05/23 13:15:39;;;;;;;;;;;18.60;99.90;;;;;;5028958;28;19960;-79
2023/05/23 13:18:06;;;;;;;;;;;18.60;99.90;;;;;;5030829;28;19936;-78
2023/05/23 13:20:35;;;;;;;;;;;18.60;99.90;;;;;;5025841;28;19932;-76
2023/05/23 13:23:01;;;;;;;;;;;18.60;99.90;;;;;;5029093;28;19957;-74
2023/05/23 13:25:28;;;;;;;;;;;18.60;99.90;;;;;;5030215;28;19925;-75
2023/05/23 13:27:56;;;;;;;;;;;18.60;99.90;;;;;;5029401;28;20238;-76
2023/05/23 13:30:23;;;;;;;;;;;18.60;99.90;;;;;;5027729;28;19931;-76
2023/05/23 13:32:50;;;;;;;;;;;18.60;99.90;;;;;;5047073;28;19932;-76
2023/05/23 13:35:17;;;;;;;;;;;18.60;99.90;;;;;;5030695;28;19929;-76
2023/05/23 13:37:49;;;;;;;;;;;18.70;99.90;;;;;;5024915;28;20032;-76
2023/05/23 13:40:17;;;;;;;;;;;18.70;99.90;;;;;;5029037;28;19933;-76
2023/05/23 13:42:44;;;;;;;;;;;18.70;99.90;;;;;;5031934;28;19932;-75
2023/05/23 13:45:11;;;;;;;;;;;18.70;99.90;;;;;;5029080;28;19979;-76
2023/05/23 13:47:39;;;;;;;;;;;18.70;99.90;;;;;;5021757;28;19933;-77
2023/05/23 13:50:07;;;;;;;;;;;18.70;99.90;;;;;;5028562;28;19932;-75
2023/05/23 13:52:34;;;;;;;;;;;18.70;99.90;;;;;;5028039;28;19933;-75
2023/05/23 13:55:04;;;;;;;;;;;18.70;99.90;;;;;;5025785;28;20405;-75
2023/05/23 13:57:31;;;;;;;;;;;18.70;99.90;;;;;;5022487;28;19925;-75
2023/05/23 13:59:58;;;;;;;;;;;18.70;99.90;;;;;;5030948;28;19927;-76
2023/05/23 14:02:26;;;;;;;;;;;18.70;99.90;;;;;;5026522;28;19929;-76
2023/05/23 14:04:53;;;;;;;;;;;18.70;99.90;;;;;;5026498;28;20389;-76
2023/05/23 14:07:20;;;;;;;;;;;18.70;99.90;;;;;;5029587;28;19955;-76
2023/05/23 14:09:49;;;;;;;;;;;18.70;99.90;;;;;;5029812;28;19936;-76
2023/05/23 14:12:17;;;;;;;;;;;18.70;99.90;;;;;;5024470;28;19933;-76
2023/05/23 14:14:44;;;;;;;;;;;18.70;99.90;;;;;;5021263;28;20481;-79
2023/05/23 14:17:14;;;;;;;;;;;18.70;99.90;;;;;;5030968;28;19925;-79
2023/05/23 14:19:41;;;;;;;;;;;18.70;99.90;;;;;;5029681;28;19936;-79
2023/05/23 14:22:07;;;;;;;;;;;18.70;99.90;;;;;;5029434;28;20412;-79
2023/05/23 14:24:37;;;;;;;;;;;18.70;99.90;;;;;;5024374;28;20419;-79
2023/05/23 14:27:05;;;;;;;;;;;18.80;99.90;;;;;;5024179;28;19925;-79